createdAt,value
2023-09-27T00:01:15.097Z,17.14
2023-09-27T00:03:43.934Z,17.12
2023-09-27T00:06:12.801Z,17.10
2023-09-27T00:08:41.855Z,17.09
2023-09-27T00:11:10.767Z,17.09
2023-09-27T00:13:40.604Z,17.09
2023-09-27T00:16:09.541Z,17.08
2023-09-27T00:18:38.378Z,17.06
2023-09-27T00:21:07.246Z,17.02
2023-09-27T00:23:36.736Z,16.99
2023-09-27T00:26:05.727Z,16.96
2023-09-27T00:28:34.723Z,16.92
2023-09-27T00:31:04.963Z,16.89
2023-09-27T00:33:33.814Z,16.85
2023-09-27T00:36:03.105Z,16.81
2023-09-27T00:38:33.240Z,16.75
2023-09-27T00:41:01.601Z,16.70
2023-09-27T00:43:31.935Z,16.66
2023-09-27T00:46:21.017Z,16.63
2023-09-27T00:48:50.292Z,16.58
2023-09-27T00:51:19.525Z,16.55
2023-09-27T00:53:49.970Z,16.53
2023-09-27T00:56:20.010Z,16.49
2023-09-27T00:58:49.536Z,16.45
2023-09-27T01:01:19.329Z,16.40
2023-09-27T01:03:49.291Z,16.36
2023-09-27T01:06:19.203Z,16.32
2023-09-27T01:08:48.576Z,16.29
2023-09-27T01:11:17.859Z,16.24
2023-09-27T01:13:46.956Z,16.20
2023-09-27T01:16:16.352Z,16.16
2023-09-27T01:18:45.245Z,16.12
2023-09-27T01:21:19.449Z,16.08
2023-09-27T01:23:50.953Z,16.01
2023-09-27T01:26:21.712Z,15.97
2023-09-27T01:28:51.780Z,15.92
2023-09-27T01:31:20.495Z,15.87
2023-09-27T01:33:49.838Z,15.82
2023-09-27T01:36:19.017Z,15.75
2023-09-27T01:38:48.010Z,15.70
2023-09-27T01:41:17.439Z,15.66
2023-09-27T01:43:46.359Z,15.64
2023-09-27T01:46:15.428Z,15.62
2023-09-27T01:48:44.146Z,15.60
2023-09-27T01:51:14.183Z,15.57
2023-09-27T01:53:43.086Z,15.53
2023-09-27T01:56:11.758Z,15.49
2023-09-27T01:58:40.860Z,15.46
2023-09-27T02:01:08.912Z,15.43
2023-09-27T02:03:37.935Z,15.42
2023-09-27T02:06:07.126Z,15.42
2023-09-27T02:08:35.892Z,15.42
2023-09-27T02:11:04.443Z,15.43
2023-09-27T02:13:33.904Z,15.44
2023-09-27T02:16:03.085Z,15.43
2023-09-27T02:18:33.314Z,15.43
2023-09-27T02:21:03.577Z,15.42
2023-09-27T02:23:32.897Z,15.42
2023-09-27T02:26:03.010Z,15.43
2023-09-27T02:28:31.909Z,15.44
2023-09-27T02:31:01.078Z,15.44
2023-09-27T02:33:30.314Z,15.44
2023-09-27T02:35:59.424Z,15.45
2023-09-27T02:38:28.422Z,15.44
2023-09-27T02:40:57.418Z,15.44
2023-09-27T02:43:26.422Z,15.43
2023-09-27T02:45:56.429Z,15.42
2023-09-27T02:48:26.881Z,15.42
2023-09-27T02:50:56.425Z,15.41
2023-09-27T02:53:25.869Z,15.39
2023-09-27T02:55:55.266Z,15.37
2023-09-27T02:58:24.640Z,15.35
2023-09-27T03:00:53.370Z,15.32
2023-09-27T03:03:21.899Z,15.29
2023-09-27T03:05:50.318Z,15.27
2023-09-27T03:08:19.069Z,15.26
2023-09-27T03:10:46.193Z,15.22
2023-09-27T03:13:13.212Z,15.19
2023-09-27T03:15:41.638Z,15.17
2023-09-27T03:18:10.229Z,15.14
2023-09-27T03:20:38.955Z,15.12
2023-09-27T03:23:08.517Z,15.10
2023-09-27T03:25:37.568Z,15.07
2023-09-27T03:28:06.721Z,15.04
2023-09-27T03:30:35.564Z,15.01
2023-09-27T03:33:06.476Z,14.99
2023-09-27T03:35:36.853Z,14.97
2023-09-27T03:38:06.173Z,14.94
2023-09-27T03:40:35.195Z,14.90
2023-09-27T03:43:04.415Z,14.86
2023-09-27T03:45:35.031Z,14.83
2023-09-27T03:48:06.564Z,14.79
2023-09-27T03:50:35.412Z,14.75
2023-09-27T03:53:05.252Z,14.72
2023-09-27T03:55:34.330Z,14.69
2023-09-27T03:58:03.902Z,14.66
2023-09-27T04:00:32.739Z,14.63
2023-09-27T04:03:01.749Z,14.59
2023-09-27T04:05:33.264Z,14.55
2023-09-27T04:08:03.470Z,14.53
2023-09-27T04:10:32.421Z,14.49
2023-09-27T04:13:01.290Z,14.46
2023-09-27T04:15:30.798Z,14.43
2023-09-27T04:18:00.192Z,14.41
2023-09-27T04:20:29.814Z,14.38
2023-09-27T04:22:59.259Z,14.35
2023-09-27T04:25:28.406Z,14.32
2023-09-27T04:27:58.236Z,14.30
2023-09-27T04:30:27.706Z,14.26
2023-09-27T04:32:56.557Z,14.24
2023-09-27T04:35:25.490Z,14.22
2023-09-27T04:37:54.543Z,14.20
2023-09-27T04:40:23.869Z,14.19
2023-09-27T04:42:52.783Z,14.18
2023-09-27T04:45:22.040Z,14.17
2023-09-27T04:47:51.234Z,14.15
2023-09-27T04:50:19.542Z,14.13
2023-09-27T04:52:48.652Z,14.12
2023-09-27T04:55:17.956Z,14.10
2023-09-27T04:57:45.721Z,14.09
2023-09-27T05:00:19.343Z,14.08
2023-09-27T05:02:55.268Z,14.09
2023-09-27T05:05:23.258Z,14.09
2023-09-27T05:07:51.001Z,14.09
2023-09-27T05:10:19.258Z,14.11
2023-09-27T05:12:47.643Z,14.13
2023-09-27T05:15:14.729Z,14.14
2023-09-27T05:17:41.779Z,14.17
2023-09-27T05:20:11.153Z,14.21
2023-09-27T05:22:39.565Z,14.23
2023-09-27T05:25:08.748Z,14.28
2023-09-27T05:27:35.895Z,14.32
2023-09-27T05:30:08.023Z,14.36
2023-09-27T05:32:35.507Z,14.41
2023-09-27T05:35:05.297Z,14.48
2023-09-27T05:37:32.546Z,14.55
2023-09-27T05:39:59.561Z,14.63
2023-09-27T05:42:26.767Z,14.71
2023-09-27T05:44:53.856Z,14.79
2023-09-27T05:47:21.205Z,14.88
2023-09-27T05:49:48.236Z,14.99
2023-09-27T05:52:17.495Z,15.09
2023-09-27T05:54:45.550Z,15.20
2023-09-27T05:57:12.983Z,15.32
2023-09-27T05:59:44.909Z,15.45
2023-09-27T06:02:17.414Z,15.57
2023-09-27T06:04:46.485Z,15.70
2023-09-27T06:07:15.280Z,15.83
2023-09-27T06:09:44.919Z,15.98
2023-09-27T06:12:12.553Z,16.12
2023-09-27T06:14:39.788Z,16.25
2023-09-27T06:17:06.892Z,16.40
2023-09-27T06:19:34.672Z,16.55
2023-09-27T06:22:05.439Z,16.70
2023-09-27T06:24:33.866Z,16.85
2023-09-27T06:27:02.019Z,16.98
2023-09-27T06:29:28.987Z,17.13
2023-09-27T06:31:57.288Z,17.27
2023-09-27T06:34:24.611Z,17.40
2023-09-27T06:36:56.794Z,17.51
2023-09-27T06:39:26.317Z,17.65
2023-09-27T06:41:56.523Z,17.76
2023-09-27T06:44:26.531Z,17.88
2023-09-27T06:46:55.149Z,18.02
2023-09-27T06:49:23.185Z,18.15
2023-09-27T06:51:51.996Z,18.29
2023-09-27T06:54:19.156Z,18.42
2023-09-27T06:56:47.405Z,18.57
2023-09-27T06:59:16.433Z,18.69
2023-09-27T07:01:43.521Z,18.80
2023-09-27T07:04:11.696Z,18.93
2023-09-27T07:06:39.248Z,19.05
2023-09-27T07:09:13.343Z,19.17
2023-09-27T07:11:42.618Z,19.30
2023-09-27T07:14:09.721Z,19.42
2023-09-27T07:16:46.423Z,19.52
2023-09-27T07:19:23.836Z,19.62
2023-09-27T07:21:51.851Z,19.72
2023-09-27T07:24:19.318Z,19.82
2023-09-27T07:26:48.450Z,19.92
2023-09-27T07:29:16.699Z,20.01
2023-09-27T07:31:43.698Z,20.11
2023-09-27T07:34:10.986Z,20.22
2023-09-27T07:36:38.184Z,20.31
2023-09-27T07:39:06.128Z,20.41
2023-09-27T07:41:35.805Z,20.52
2023-09-27T07:44:07.377Z,20.64
2023-09-27T07:46:35.946Z,20.76
2023-09-27T07:49:04.288Z,20.87
2023-09-27T07:51:31.300Z,20.98
2023-09-27T07:53:58.312Z,21.08
2023-09-27T07:56:26.882Z,21.18
2023-09-27T07:58:55.329Z,21.30
2023-09-27T08:01:24.295Z,21.40
2023-09-27T08:03:52.207Z,21.53
2023-09-27T08:06:20.282Z,21.66
2023-09-27T08:08:47.947Z,21.78
2023-09-27T08:11:16.076Z,21.89
2023-09-27T08:13:44.945Z,22.02
2023-09-27T08:16:13.149Z,22.16
2023-09-27T08:18:43.439Z,22.29
2023-09-27T08:21:12.154Z,22.39
2023-09-27T08:23:41.643Z,22.50
2023-09-27T08:26:12.904Z,22.64
2023-09-27T08:28:40.456Z,22.80
2023-09-27T08:31:07.619Z,22.95
2023-09-27T08:33:36.454Z,23.11
2023-09-27T08:36:05.371Z,23.29
2023-09-27T08:38:34.276Z,23.46
2023-09-27T08:41:04.212Z,23.63
2023-09-27T08:43:34.956Z,23.79
2023-09-27T08:46:05.578Z,23.94
2023-09-27T08:48:36.145Z,24.10
2023-09-27T08:51:05.542Z,24.30
2023-09-27T08:53:35.531Z,24.48
2023-09-27T08:56:06.818Z,24.66
2023-09-27T08:58:34.682Z,24.85
2023-09-27T09:01:04.195Z,25.03
2023-09-27T09:03:34.009Z,25.25
2023-09-27T09:06:11.186Z,25.45
2023-09-27T09:08:54.661Z,25.66
2023-09-27T09:11:23.637Z,25.91
2023-09-27T09:14:04.950Z,26.16
2023-09-27T09:16:40.729Z,26.40
2023-09-27T09:19:42.899Z,26.66
2023-09-27T09:22:13.395Z,26.99
2023-09-27T09:24:42.860Z,27.27
2023-09-27T09:27:18.243Z,27.55
2023-09-27T09:29:53.003Z,27.85
2023-09-27T09:32:23.151Z,28.15
2023-09-27T09:34:53.529Z,28.43
2023-09-27T09:37:23.802Z,28.68
2023-09-27T09:39:54.442Z,28.85
2023-09-27T09:42:33.539Z,29.07
2023-09-27T09:45:07.389Z,29.32
2023-09-27T09:47:38.560Z,29.56
2023-09-27T09:50:20.321Z,29.85
2023-09-27T09:52:58.310Z,30.14
2023-09-27T09:55:48.719Z,30.39
2023-09-27T09:58:47.495Z,30.68
2023-09-27T10:01:26.872Z,30.96
2023-09-27T10:03:55.781Z,31.18
2023-09-27T10:06:36.517Z,31.38
2023-09-27T10:09:14.556Z,31.62
2023-09-27T10:11:45.384Z,31.84
2023-09-27T10:14:16.922Z,32.08
2023-09-27T10:16:45.523Z,32.26
2023-09-27T10:19:26.646Z,32.44
2023-09-27T10:22:07.956Z,32.69
2023-09-27T10:24:41.662Z,32.91
2023-09-27T10:27:08.815Z,33.11
2023-09-27T10:29:58.752Z,33.26
2023-09-27T10:32:28.591Z,33.44
2023-09-27T10:35:16.634Z,33.65
2023-09-27T10:37:58.787Z,33.89
2023-09-27T10:40:26.272Z,34.12
2023-09-27T10:42:55.793Z,34.33
2023-09-27T10:45:23.496Z,34.51
2023-09-27T10:47:52.845Z,34.73
2023-09-27T10:50:31.538Z,34.98
2023-09-27T10:52:59.728Z,35.21
2023-09-27T10:55:39.209Z,35.36
2023-09-27T10:58:09.989Z,35.51
2023-09-27T11:00:55.730Z,35.42
2023-09-27T11:03:30.390Z,34.89
2023-09-27T11:06:11.795Z,34.61
2023-09-27T11:08:41.752Z,34.51
2023-09-27T11:11:11.848Z,34.36
2023-09-27T11:13:49.192Z,34.40
2023-09-27T11:16:21.613Z,34.72
2023-09-27T11:18:50.603Z,35.07
2023-09-27T11:21:24.497Z,35.39
2023-09-27T11:24:05.489Z,35.69
2023-09-27T11:26:33.782Z,35.98
2023-09-27T11:29:27.328Z,36.26
2023-09-27T11:31:58.303Z,36.55
2023-09-27T11:34:58.498Z,36.75
2023-09-27T11:37:29.002Z,37.01
2023-09-27T11:39:59.605Z,37.20
2023-09-27T11:42:28.466Z,37.42
2023-09-27T11:45:09.914Z,37.70
2023-09-27T11:47:51.909Z,37.93
2023-09-27T11:50:43.565Z,38.09
2023-09-27T11:53:14.178Z,38.22
2023-09-27T11:55:59.726Z,38.27
2023-09-27T11:58:37.606Z,38.26
2023-09-27T12:01:17.436Z,38.37
2023-09-27T12:04:08.300Z,38.56
2023-09-27T12:06:38.172Z,38.74
2023-09-27T12:09:07.038Z,38.32
2023-09-27T12:11:36.746Z,37.50
2023-09-27T12:14:08.418Z,36.98
2023-09-27T12:16:38.462Z,36.48
2023-09-27T12:19:08.829Z,35.90
2023-09-27T12:21:38.226Z,35.58
2023-09-27T12:24:08.852Z,35.73
2023-09-27T12:26:38.562Z,36.05
2023-09-27T12:29:08.320Z,36.41
2023-09-27T12:31:37.535Z,36.75
2023-09-27T12:34:06.907Z,37.09
2023-09-27T12:36:51.273Z,37.40
2023-09-27T12:39:21.512Z,37.64
2023-09-27T12:41:55.359Z,37.87
2023-09-27T12:44:23.739Z,38.12
2023-09-27T12:46:58.162Z,38.42
2023-09-27T12:49:28.108Z,38.71
2023-09-27T12:51:56.995Z,38.83
2023-09-27T12:54:30.477Z,38.93
2023-09-27T12:57:01.624Z,38.97
2023-09-27T12:59:41.095Z,38.97
2023-09-27T13:02:31.725Z,38.97
2023-09-27T13:05:02.411Z,38.43
2023-09-27T13:07:51.403Z,37.69
2023-09-27T13:10:21.361Z,37.02
2023-09-27T13:12:53.192Z,36.59
2023-09-27T13:15:20.598Z,36.34
2023-09-27T13:17:47.951Z,36.56
2023-09-27T13:20:16.102Z,36.96
2023-09-27T13:22:46.112Z,37.32
2023-09-27T13:25:16.029Z,37.67
2023-09-27T13:27:45.714Z,38.07
2023-09-27T13:30:29.673Z,38.43
2023-09-27T13:33:06.859Z,38.69
2023-09-27T13:35:37.328Z,38.95
2023-09-27T13:38:11.110Z,39.24
2023-09-27T13:40:39.732Z,39.52
2023-09-27T13:43:08.922Z,39.69
2023-09-27T13:45:38.978Z,39.88
2023-09-27T13:48:08.598Z,40.07
2023-09-27T13:50:41.290Z,40.32
2023-09-27T13:53:11.630Z,40.54
2023-09-27T13:55:59.058Z,40.73
2023-09-27T13:58:28.170Z,40.95
2023-09-27T14:01:23.694Z,41.09
2023-09-27T14:04:03.432Z,41.27
2023-09-27T14:06:57.987Z,41.49
2023-09-27T14:09:28.895Z,41.24
2023-09-27T14:19:53.115Z,37.62
2023-09-27T14:22:49.257Z,37.66
2023-09-27T14:25:37.068Z,38.30
2023-09-27T14:28:14.429Z,38.97
2023-09-27T14:31:39.086Z,39.54
2023-09-27T14:34:56.711Z,40.16
2023-09-27T14:38:14.266Z,40.79
2023-09-27T14:41:30.151Z,41.27
2023-09-27T14:44:28.011Z,41.76
2023-09-27T14:47:55.876Z,42.23
2023-09-27T14:50:26.123Z,42.55
2023-09-27T14:52:56.704Z,42.71
2023-09-27T14:55:30.690Z,42.90
2023-09-27T14:58:22.019Z,43.13
2023-09-27T15:00:52.875Z,43.33
2023-09-27T15:03:34.083Z,43.45
2023-09-27T15:06:07.861Z,43.56
2023-09-27T15:08:38.789Z,43.67
2023-09-27T15:11:22.542Z,43.77
2023-09-27T15:14:10.165Z,43.87
2023-09-27T15:16:51.653Z,44.09
2023-09-27T15:19:23.135Z,44.26
2023-09-27T15:22:22.697Z,44.48
2023-09-27T15:24:53.631Z,44.01
2023-09-27T15:27:43.323Z,42.29
2023-09-27T15:30:22.733Z,40.96
2023-09-27T15:32:55.194Z,39.76
2023-09-27T15:35:55.313Z,38.99
2023-09-27T15:38:50.878Z,39.37
2023-09-27T15:41:44.627Z,39.95
2023-09-27T15:44:14.112Z,40.35
2023-09-27T15:46:49.768Z,40.71
2023-09-27T15:49:18.977Z,41.01
2023-09-27T15:52:19.141Z,41.23
2023-09-27T15:55:09.634Z,41.34
2023-09-27T15:57:49.593Z,41.35
2023-09-27T16:00:19.704Z,41.12
2023-09-27T16:03:01.217Z,40.80
2023-09-27T16:05:52.499Z,40.40
2023-09-27T16:08:23.923Z,39.95
2023-09-27T16:11:27.089Z,39.67
2023-09-27T16:14:09.990Z,38.97
2023-09-27T16:16:45.496Z,37.95
2023-09-27T16:24:48.045Z,35.68
2023-09-27T16:27:35.034Z,34.42
2023-09-27T16:30:21.123Z,33.63
2023-09-27T16:32:50.317Z,33.01
2023-09-27T16:35:18.453Z,32.41
2023-09-27T16:37:46.206Z,31.82
2023-09-27T16:40:14.865Z,31.26
2023-09-27T16:42:42.509Z,30.75
2023-09-27T16:45:11.062Z,30.29
2023-09-27T16:47:40.151Z,29.80
2023-09-27T16:50:09.956Z,29.37
2023-09-27T16:52:37.906Z,28.97
2023-09-27T16:55:09.409Z,28.57
2023-09-27T16:57:39.362Z,28.18
2023-09-27T17:00:11.347Z,27.80
2023-09-27T17:02:44.005Z,27.42
2023-09-27T17:05:11.683Z,27.06
2023-09-27T17:07:39.821Z,26.71
2023-09-27T17:10:10.628Z,26.36
2023-09-27T17:12:40.065Z,26.06
2023-09-27T17:15:08.867Z,25.77
2023-09-27T17:17:37.466Z,25.50
2023-09-27T17:20:06.217Z,25.27
2023-09-27T17:22:34.025Z,25.02
2023-09-27T17:25:01.591Z,24.78
2023-09-27T17:27:29.246Z,24.55
2023-09-27T17:29:59.254Z,24.31
2023-09-27T17:32:26.851Z,24.08
2023-09-27T17:34:54.899Z,23.86
2023-09-27T17:37:22.725Z,23.65
2023-09-27T17:39:51.706Z,23.35
2023-09-27T17:42:19.263Z,22.83
2023-09-27T17:44:49.420Z,22.45
2023-09-27T17:47:17.750Z,22.21
2023-09-27T17:49:45.385Z,21.94
2023-09-27T17:52:13.048Z,21.68
2023-09-27T17:54:40.797Z,21.55
2023-09-27T17:57:08.536Z,21.46
2023-09-27T17:59:36.359Z,21.40
2023-09-27T18:02:04.180Z,21.34
2023-09-27T18:04:32.479Z,21.25
2023-09-27T18:06:59.692Z,21.15
2023-09-27T18:09:26.889Z,21.05
2023-09-27T18:11:54.109Z,20.98
2023-09-27T18:14:22.478Z,20.89
2023-09-27T18:16:49.761Z,20.81
2023-09-27T18:19:17.316Z,20.76
2023-09-27T18:21:46.055Z,20.67
2023-09-27T18:24:13.374Z,20.59
2023-09-27T18:26:40.625Z,20.51
2023-09-27T18:29:07.965Z,20.45
2023-09-27T18:31:35.273Z,20.38
2023-09-27T18:34:05.426Z,20.31
2023-09-27T18:36:34.327Z,20.23
2023-09-27T18:39:03.326Z,20.14
2023-09-27T18:41:31.416Z,20.06
2023-09-27T18:43:59.138Z,19.99
2023-09-27T18:46:26.589Z,19.90
2023-09-27T18:48:54.060Z,19.81
2023-09-27T18:51:21.681Z,19.74
2023-09-27T18:53:49.857Z,19.66
2023-09-27T18:56:20.145Z,19.59
2023-09-27T18:58:47.525Z,19.52
2023-09-27T19:01:15.412Z,19.46
2023-09-27T19:03:42.470Z,19.41
2023-09-27T19:06:14.743Z,19.36
2023-09-27T19:08:42.926Z,19.29
2023-09-27T19:11:18.240Z,19.24
2023-09-27T19:13:45.461Z,19.16
2023-09-27T19:16:12.605Z,19.08
2023-09-27T19:18:39.863Z,19.00
2023-09-27T19:21:09.090Z,18.91
2023-09-27T19:23:39.574Z,18.86
2023-09-27T19:26:07.461Z,18.80
2023-09-27T19:28:35.936Z,18.75
2023-09-27T19:31:07.823Z,18.71
2023-09-27T19:33:41.759Z,18.67
2023-09-27T19:36:18.431Z,18.64
2023-09-27T19:38:47.982Z,18.60
2023-09-27T19:41:21.512Z,18.57
2023-09-27T19:43:48.702Z,18.53
2023-09-27T19:46:21.565Z,18.49
2023-09-27T19:48:48.787Z,18.46
2023-09-27T19:51:25.263Z,18.43
2023-09-27T19:53:54.837Z,18.38
2023-09-27T19:56:22.291Z,18.33
2023-09-27T19:58:49.890Z,18.27
2023-09-27T20:01:29.360Z,18.23
2023-09-27T20:03:56.887Z,18.19
2023-09-27T20:06:25.969Z,18.16
2023-09-27T20:08:52.913Z,18.13
2023-09-27T20:11:20.766Z,18.11
2023-09-27T20:13:47.929Z,18.09
2023-09-27T20:16:15.203Z,18.08
2023-09-27T20:18:42.225Z,18.05
2023-09-27T20:21:09.485Z,18.03
2023-09-27T20:23:38.507Z,18.01
2023-09-27T20:26:05.831Z,17.98
2023-09-27T20:28:33.019Z,17.95
2023-09-27T20:31:00.031Z,17.92
2023-09-27T20:33:27.193Z,17.91
2023-09-27T20:35:54.174Z,17.88
2023-09-27T20:38:21.230Z,17.85
2023-09-27T20:40:48.229Z,17.83
2023-09-27T20:43:15.484Z,17.81
2023-09-27T20:45:42.657Z,17.78
2023-09-27T20:48:09.716Z,17.76
2023-09-27T20:50:36.847Z,17.73
2023-09-27T20:53:04.012Z,17.71
2023-09-27T20:55:31.210Z,17.67
2023-09-27T20:58:04.111Z,17.64
2023-09-27T21:00:31.855Z,17.59
2023-09-27T21:02:58.926Z,17.55
2023-09-27T21:05:25.958Z,17.53
2023-09-27T21:07:53.496Z,17.50
2023-09-27T21:10:20.603Z,17.47
2023-09-27T21:12:47.578Z,17.44
2023-09-27T21:15:14.658Z,17.40
2023-09-27T21:17:41.923Z,17.37
2023-09-27T21:20:10.070Z,17.34
2023-09-27T21:22:37.207Z,17.31
2023-09-27T21:25:04.888Z,17.27
2023-09-27T21:27:32.922Z,17.24
2023-09-27T21:30:04.238Z,17.21
2023-09-27T21:32:31.347Z,17.19
2023-09-27T21:34:58.545Z,17.18
2023-09-27T21:37:26.628Z,17.14
2023-09-27T21:39:54.157Z,17.12
2023-09-27T21:42:21.110Z,17.11
2023-09-27T21:44:48.078Z,17.08
2023-09-27T21:47:15.204Z,17.06
2023-09-27T21:49:42.272Z,17.02
2023-09-27T21:52:09.298Z,16.98
2023-09-27T21:54:36.333Z,16.94
2023-09-27T21:57:03.482Z,16.92
2023-09-27T21:59:31.661Z,16.88
2023-09-27T22:01:58.714Z,16.85
2023-09-27T22:04:25.812Z,16.83
2023-09-27T22:06:52.777Z,16.82
2023-09-27T22:09:20.083Z,16.79
2023-09-27T22:11:51.782Z,16.76
2023-09-27T22:14:20.472Z,16.74
2023-09-27T22:16:48.491Z,16.72
2023-09-27T22:19:15.479Z,16.71
2023-09-27T22:21:46.681Z,16.69
2023-09-27T22:24:18.240Z,16.66
2023-09-27T22:26:47.441Z,16.64
2023-09-27T22:29:14.516Z,16.60
2023-09-27T22:31:42.796Z,16.58
2023-09-27T22:34:23.105Z,16.55
2023-09-27T22:36:51.350Z,16.53
2023-09-27T22:39:19.632Z,16.51
2023-09-27T22:41:48.754Z,16.49
2023-09-27T22:44:22.691Z,16.47
2023-09-27T22:46:53.206Z,16.44
2023-09-27T22:49:22.664Z,16.42
2023-09-27T22:51:50.620Z,16.39
2023-09-27T22:54:21.081Z,16.37
2023-09-27T22:56:52.504Z,16.34
2023-09-27T22:59:19.522Z,16.30
2023-09-27T23:01:51.072Z,16.25
2023-09-27T23:04:23.056Z,16.22
2023-09-27T23:07:02.058Z,16.20
2023-09-27T23:09:34.745Z,16.18
2023-09-27T23:12:20.745Z,16.16
2023-09-27T23:15:07.004Z,16.13
2023-09-27T23:17:55.590Z,16.10
2023-09-27T23:20:29.224Z,16.07
2023-09-27T23:22:57.510Z,16.04
2023-09-27T23:25:43.450Z,16.01
2023-09-27T23:28:17.079Z,15.96
2023-09-27T23:30:53.039Z,15.93
2023-09-27T23:33:20.113Z,15.90
2023-09-27T23:35:50.402Z,15.87
2023-09-27T23:38:37.233Z,15.85
2023-09-27T23:41:04.478Z,15.82
2023-09-27T23:43:40.462Z,15.79
2023-09-27T23:46:14.096Z,15.77
2023-09-27T23:48:42.865Z,15.75
2023-09-27T23:51:10.037Z,15.72
2023-09-27T23:53:37.162Z,15.72
2023-09-27T23:56:07.078Z,15.70
2023-09-27T23:58:35.435Z,15.67
